createdAt,value
2019-05-18T00:00:38.543Z,288.57
2019-05-18T00:03:07.642Z,378.15
2019-05-18T00:05:36.525Z,284.30
2019-05-18T00:08:05.825Z,275.32
2019-05-18T00:10:34.925Z,254.45
2019-05-18T00:13:04.624Z,238.12
2019-05-18T00:15:40.778Z,224.55
2019-05-18T00:18:10.092Z,210.80
2019-05-18T00:20:39.538Z,202.62
2019-05-18T00:23:08.487Z,194.22
2019-05-18T00:25:37.686Z,187.00
2019-05-18T00:28:06.682Z,177.97
2019-05-18T00:30:35.673Z,171.32
2019-05-18T00:33:05.280Z,165.82
2019-05-18T00:35:34.283Z,161.43
2019-05-18T00:38:03.266Z,154.95
2019-05-18T00:40:35.964Z,152.25
2019-05-18T00:43:05.248Z,147.32
2019-05-18T00:45:34.239Z,145.80
2019-05-18T00:48:03.541Z,142.13
2019-05-18T00:50:32.844Z,136.05
2019-05-18T00:53:01.834Z,133.75
2019-05-18T00:55:30.929Z,128.87
2019-05-18T00:58:00.741Z,126.85
2019-05-18T01:00:29.839Z,123.42
2019-05-18T01:02:59.751Z,118.37
2019-05-18T01:05:34.069Z,115.15
2019-05-18T01:08:03.885Z,112.50
2019-05-18T01:10:33.084Z,109.80
2019-05-18T01:13:02.079Z,106.72
2019-05-18T01:15:31.073Z,107.72
2019-05-18T01:18:02.194Z,103.83
2019-05-18T01:20:30.383Z,99.62
2019-05-18T01:23:00.197Z,98.27
2019-05-18T01:25:29.190Z,96.32
2019-05-18T01:27:58.182Z,93.90
2019-05-18T01:30:27.174Z,91.47
2019-05-18T01:32:56.785Z,90.35
2019-05-18T01:35:25.882Z,85.40
2019-05-18T01:37:55.076Z,83.75
2019-05-18T01:40:24.383Z,80.92
2019-05-18T01:42:54.908Z,83.27
2019-05-18T01:45:24.822Z,80.70
2019-05-18T01:47:54.428Z,77.17
2019-05-18T01:50:23.633Z,75.43
2019-05-18T01:52:52.658Z,73.77
2019-05-18T01:55:21.717Z,71.65
2019-05-18T01:57:50.604Z,70.87
2019-05-18T02:00:19.495Z,69.70
2019-05-18T02:02:49.411Z,67.50
2019-05-18T02:05:18.304Z,65.30
2019-05-18T02:07:47.294Z,63.90
2019-05-18T02:10:16.391Z,63.80
2019-05-18T02:12:45.280Z,60.43
2019-05-18T02:15:14.273Z,58.92
2019-05-18T02:17:43.368Z,58.83
2019-05-18T02:20:12.259Z,57.48
2019-05-18T02:22:41.255Z,55.73
2019-05-18T02:25:10.554Z,56.70
2019-05-18T02:27:39.547Z,54.42
2019-05-18T02:30:08.542Z,52.98
2019-05-18T02:32:37.534Z,51.88
2019-05-18T02:35:06.938Z,49.73
2019-05-18T02:37:36.749Z,48.30
2019-05-18T02:40:07.278Z,48.02
2019-05-18T02:42:36.269Z,46.37
2019-05-18T02:45:08.130Z,45.35
2019-05-18T02:47:39.480Z,43.65
2019-05-18T02:50:08.481Z,43.83
2019-05-18T02:52:37.464Z,42.83
2019-05-18T02:55:07.075Z,41.23
2019-05-18T02:57:36.070Z,40.50
2019-05-18T03:00:08.847Z,40.83
2019-05-18T03:02:38.044Z,39.53
2019-05-18T03:05:07.653Z,37.38
2019-05-18T03:07:36.655Z,39.33
2019-05-18T03:10:08.209Z,37.75
2019-05-18T03:12:37.128Z,34.10
2019-05-18T03:15:09.350Z,35.13
2019-05-18T03:17:38.572Z,34.33
2019-05-18T03:20:08.175Z,33.83
2019-05-18T03:22:37.060Z,33.18
2019-05-18T03:25:06.981Z,31.45
2019-05-18T03:27:36.164Z,31.00
2019-05-18T03:30:07.423Z,29.80
2019-05-18T03:32:36.424Z,30.48
2019-05-18T03:35:05.741Z,29.18
2019-05-18T03:37:34.701Z,28.23
2019-05-18T03:40:04.564Z,28.32
2019-05-18T03:42:33.404Z,28.17
2019-05-18T03:45:02.296Z,26.97
2019-05-18T03:47:32.066Z,25.83
2019-05-18T03:50:01.005Z,24.72
2019-05-18T03:52:29.890Z,23.30
2019-05-18T03:54:58.881Z,23.47
2019-05-18T03:57:27.876Z,22.82
2019-05-18T03:59:56.882Z,23.10
2019-05-18T04:02:26.172Z,21.68
2019-05-18T04:04:55.473Z,21.77
2019-05-18T04:07:24.796Z,21.90
2019-05-18T04:09:56.328Z,21.50
2019-05-18T04:12:25.314Z,19.97
2019-05-18T04:14:54.516Z,19.70
2019-05-18T04:17:24.120Z,18.37
2019-05-18T04:19:53.023Z,18.92
2019-05-18T04:22:22.209Z,17.02
2019-05-18T04:24:51.114Z,19.30
2019-05-18T04:27:20.093Z,17.45
2019-05-18T04:29:49.103Z,16.70
2019-05-18T04:32:18.181Z,16.30
2019-05-18T04:34:47.997Z,16.83
2019-05-18T04:37:16.988Z,16.00
2019-05-18T04:39:45.987Z,15.30
2019-05-18T04:42:14.979Z,14.98
2019-05-18T04:44:43.971Z,14.75
2019-05-18T04:47:12.961Z,13.68
2019-05-18T04:49:41.953Z,13.43
2019-05-18T04:52:11.050Z,13.18
2019-05-18T04:54:39.939Z,12.85
2019-05-18T04:57:08.935Z,12.73
2019-05-18T04:59:37.925Z,13.28
2019-05-18T05:02:07.020Z,12.00
2019-05-18T05:04:36.835Z,12.53
2019-05-18T05:07:05.827Z,11.55
2019-05-18T05:09:34.716Z,11.38
2019-05-18T05:12:03.812Z,11.15
2019-05-18T05:14:32.806Z,10.68
2019-05-18T05:17:01.799Z,10.05
2019-05-18T05:19:30.793Z,9.33
2019-05-18T05:22:00.095Z,10.58
2019-05-18T05:24:29.599Z,43.23
2019-05-18T05:27:00.542Z,70.87
2019-05-18T05:29:30.249Z,88.40
2019-05-18T05:32:00.475Z,86.45
2019-05-18T05:34:29.673Z,91.30
2019-05-18T05:36:58.980Z,149.50
2019-05-18T05:39:28.070Z,173.43
2019-05-18T05:41:56.959Z,181.07
2019-05-18T05:44:26.253Z,168.47
2019-05-18T05:46:55.349Z,157.90
2019-05-18T05:49:24.858Z,147.27
2019-05-18T05:51:54.159Z,141.77
2019-05-18T05:54:23.457Z,133.57
2019-05-18T05:56:52.554Z,119.10
2019-05-18T05:59:21.747Z,113.10
2019-05-18T06:01:50.751Z,109.40
2019-05-18T06:04:20.657Z,101.87
2019-05-18T06:06:49.751Z,103.35
2019-05-18T06:09:18.647Z,98.80
2019-05-18T06:11:48.658Z,93.45
2019-05-18T06:14:17.549Z,90.72
2019-05-18T06:16:46.543Z,86.22
2019-05-18T06:19:15.537Z,82.88
2019-05-18T06:21:44.531Z,78.63
2019-05-18T06:24:13.527Z,75.27
2019-05-18T06:26:42.516Z,75.23
2019-05-18T06:29:11.511Z,69.97
2019-05-18T06:31:40.504Z,67.75
2019-05-18T06:34:09.495Z,64.10
2019-05-18T06:36:38.487Z,61.53
2019-05-18T06:39:08.136Z,59.03
2019-05-18T06:41:37.088Z,57.70
2019-05-18T06:44:06.528Z,57.40
2019-05-18T06:46:35.483Z,53.68
2019-05-18T06:49:05.300Z,52.90
2019-05-18T06:51:34.290Z,50.33
2019-05-18T06:54:03.284Z,50.10
2019-05-18T06:56:32.786Z,46.88
2019-05-18T06:59:01.892Z,47.67
2019-05-18T07:01:30.901Z,44.18
2019-05-18T07:03:59.766Z,44.25
2019-05-18T07:06:28.656Z,43.50
2019-05-18T07:08:57.558Z,42.03
2019-05-18T07:11:26.543Z,41.60
2019-05-18T07:13:55.856Z,39.40
2019-05-18T07:16:25.451Z,37.05
2019-05-18T07:18:54.852Z,37.53
2019-05-18T07:21:24.369Z,36.13
2019-05-18T07:23:53.965Z,33.83
2019-05-18T07:26:22.992Z,35.33
2019-05-18T07:28:52.258Z,33.13
2019-05-18T07:31:21.253Z,32.55
2019-05-18T07:33:50.244Z,32.75
2019-05-18T07:36:19.263Z,32.23
2019-05-18T07:38:48.652Z,29.63
2019-05-18T07:41:17.840Z,27.62
2019-05-18T07:43:46.836Z,29.20
2019-05-18T07:46:17.060Z,27.52
2019-05-18T07:48:46.055Z,26.52
2019-05-18T07:51:15.149Z,25.43
2019-05-18T07:53:44.136Z,25.68
2019-05-18T07:56:13.947Z,26.05
2019-05-18T07:58:42.942Z,24.35
2019-05-18T08:01:12.034Z,24.50
2019-05-18T08:03:40.927Z,22.97
2019-05-18T08:06:09.922Z,22.80
2019-05-18T08:08:38.812Z,22.70
2019-05-18T08:11:07.905Z,21.70
2019-05-18T08:13:36.898Z,21.50
2019-05-18T08:16:05.995Z,21.10
2019-05-18T08:18:34.891Z,20.35
2019-05-18T08:21:04.288Z,19.85
2019-05-18T08:23:33.486Z,19.52
2019-05-18T08:26:02.479Z,18.37
2019-05-18T08:28:31.786Z,18.57
2019-05-18T08:31:00.875Z,18.10
2019-05-18T08:33:29.766Z,16.42
2019-05-18T08:35:58.762Z,17.23
2019-05-18T08:38:27.855Z,16.67
2019-05-18T08:40:56.746Z,16.65
2019-05-18T08:43:26.047Z,14.95
2019-05-18T08:45:56.782Z,15.68
2019-05-18T08:48:25.876Z,14.70
2019-05-18T08:50:55.276Z,15.93
2019-05-18T08:53:24.478Z,15.38
2019-05-18T08:55:54.083Z,14.83
2019-05-18T08:58:23.075Z,14.28
2019-05-18T09:00:51.867Z,14.20
2019-05-18T09:03:20.757Z,14.03
2019-05-18T09:05:49.569Z,13.55
2019-05-18T09:08:18.545Z,11.83
2019-05-18T09:10:47.428Z,12.80
2019-05-18T09:13:16.431Z,12.58
2019-05-18T09:15:46.029Z,20.48
2019-05-18T09:18:15.952Z,70.03
2019-05-18T09:20:44.936Z,94.92
2019-05-18T09:23:14.238Z,101.70
2019-05-18T09:25:43.543Z,112.35
2019-05-18T09:28:13.767Z,185.40
2019-05-18T09:30:42.653Z,213.45
2019-05-18T09:33:12.363Z,171.47
2019-05-18T09:35:41.367Z,148.38
2019-05-18T09:38:10.346Z,120.15
2019-05-18T09:40:39.339Z,112.25
2019-05-18T09:43:08.642Z,93.37
2019-05-18T09:45:38.045Z,81.82
2019-05-18T09:48:07.245Z,73.30
2019-05-18T09:50:36.542Z,65.47
2019-05-18T09:53:05.796Z,66.28
2019-05-18T09:55:35.145Z,63.05
2019-05-18T09:58:04.148Z,78.33
2019-05-18T10:00:38.442Z,109.97
2019-05-18T10:03:03.668Z,88.80
2019-05-18T10:05:32.758Z,50.03
2019-05-18T10:08:01.550Z,32.00
2019-05-18T10:10:33.218Z,17.85
2019-05-18T10:13:01.780Z,15.05
2019-05-18T10:15:30.593Z,10.50
2019-05-18T10:17:59.460Z,56.13
2019-05-18T10:20:28.555Z,81.30
2019-05-18T10:23:11.798Z,54.53
2019-05-18T10:25:27.973Z,42.75
2019-05-18T10:27:57.276Z,23.98
2019-05-18T10:30:26.267Z,22.40
2019-05-18T10:32:56.489Z,21.52
2019-05-18T10:35:26.098Z,20.17
2019-05-18T10:37:55.397Z,44.18
2019-05-18T10:40:24.703Z,9.88
2019-05-18T10:42:54.306Z,3.47
2019-05-18T10:45:23.589Z,2.87
2019-05-18T10:47:52.881Z,1.80
2019-05-18T10:50:21.904Z,0.85
2019-05-18T10:52:50.796Z,1.35
2019-05-18T10:55:19.576Z,0.60
2019-05-18T10:57:48.571Z,11.30
2019-05-18T11:00:19.716Z,114.93
2019-05-18T11:02:48.713Z,35.25
2019-05-18T11:05:17.703Z,57.17
2019-05-18T11:07:46.807Z,20.35
2019-05-18T11:10:16.916Z,35.00
2019-05-18T11:12:45.907Z,68.65
2019-05-18T11:15:15.005Z,23.55
2019-05-18T11:17:43.896Z,6.42
2019-05-18T11:20:12.785Z,9.13
2019-05-18T11:22:41.675Z,7.12
2019-05-18T11:25:10.569Z,3.83
2019-05-18T11:27:39.677Z,2.50
2019-05-18T11:30:09.415Z,1.17
2019-05-18T11:32:39.084Z,1.15
2019-05-18T11:35:08.667Z,0.80
2019-05-18T11:37:37.992Z,0.93
2019-05-18T11:40:10.254Z,0.60
2019-05-18T11:42:39.680Z,0.50
2019-05-18T11:45:10.879Z,0.68
2019-05-18T11:47:40.111Z,0.60
2019-05-18T11:50:09.718Z,2.47
2019-05-18T11:52:40.655Z,4.20
2019-05-18T11:55:09.586Z,3.92
2019-05-18T11:57:38.540Z,2.30
2019-05-18T12:00:13.059Z,49.80
2019-05-18T12:02:42.060Z,10.40
2019-05-18T12:05:11.356Z,0.90
2019-05-18T12:07:43.138Z,18.73
2019-05-18T12:10:13.034Z,0.60
2019-05-18T12:12:42.027Z,1.57
2019-05-18T12:15:11.728Z,6.65
2019-05-18T12:17:40.620Z,0.60
2019-05-18T12:20:09.613Z,0.40
2019-05-18T12:22:38.609Z,0.47
2019-05-18T12:25:09.140Z,0.40
2019-05-18T12:27:38.158Z,0.33
2019-05-18T12:30:10.626Z,0.47
2019-05-18T12:32:39.494Z,0.33
2019-05-18T12:35:10.330Z,0.33
2019-05-18T12:37:39.733Z,0.40
2019-05-18T12:40:09.227Z,0.57
2019-05-18T12:42:38.230Z,0.30
2019-05-18T12:45:10.380Z,0.30
2019-05-18T12:47:39.288Z,0.30
2019-05-18T12:50:08.592Z,0.50
2019-05-18T12:52:37.890Z,0.50
2019-05-18T12:55:07.214Z,0.40
2019-05-18T12:57:36.491Z,0.57
2019-05-18T13:00:13.118Z,0.30
2019-05-18T13:02:42.463Z,0.40
2019-05-18T13:05:11.483Z,0.40
2019-05-18T13:07:40.463Z,0.50
2019-05-18T13:10:10.370Z,0.30
2019-05-18T13:12:39.766Z,0.40
2019-05-18T13:15:10.502Z,0.40
2019-05-18T13:17:39.809Z,0.40
2019-05-18T13:20:09.107Z,0.40
2019-05-18T13:22:38.094Z,0.30
2019-05-18T13:25:07.105Z,0.30
2019-05-18T13:27:39.358Z,0.33
2019-05-18T13:30:08.118Z,0.35
2019-05-18T13:32:38.787Z,0.37
2019-05-18T13:35:08.593Z,0.23
2019-05-18T13:37:37.685Z,0.30
2019-05-18T13:40:08.221Z,0.30
2019-05-18T13:42:37.114Z,0.30
2019-05-18T13:45:10.400Z,0.37
2019-05-18T13:47:40.314Z,0.40
2019-05-18T13:50:09.326Z,0.40
2019-05-18T13:52:38.300Z,0.47
2019-05-18T13:55:07.296Z,0.60
2019-05-18T13:57:36.289Z,0.47
2019-05-18T14:00:08.770Z,0.50
2019-05-18T14:02:37.655Z,0.40
2019-05-18T14:05:09.820Z,0.40
2019-05-18T14:07:39.640Z,0.40
2019-05-18T14:10:08.625Z,0.40
2019-05-18T14:12:37.622Z,0.50
2019-05-18T14:15:07.237Z,0.45
2019-05-18T14:17:36.227Z,0.77
2019-05-18T14:20:05.327Z,0.70
2019-05-18T14:22:34.109Z,0.70
2019-05-18T14:25:10.577Z,0.65
2019-05-18T14:27:33.428Z,0.72
2019-05-18T14:30:02.313Z,0.70
2019-05-18T14:32:32.332Z,0.50
2019-05-18T14:35:01.327Z,0.40
2019-05-18T14:37:30.316Z,0.40
2019-05-18T14:39:59.410Z,0.50
2019-05-18T14:42:28.339Z,0.50
2019-05-18T14:44:57.714Z,0.60
2019-05-18T14:47:27.624Z,0.50
2019-05-18T14:49:57.532Z,0.50
2019-05-18T14:52:26.425Z,0.47
2019-05-18T14:54:55.724Z,0.40
2019-05-18T14:57:25.831Z,3.37
2019-05-18T14:59:56.475Z,23.57
2019-05-18T15:02:25.776Z,37.60
2019-05-18T15:04:56.943Z,42.17
2019-05-18T15:07:26.019Z,41.53
2019-05-18T15:09:55.316Z,37.53
2019-05-18T15:12:24.517Z,28.55
2019-05-18T15:14:53.815Z,24.67
2019-05-18T15:17:23.107Z,21.27
2019-05-18T15:19:52.108Z,16.50
2019-05-18T15:22:21.100Z,12.98
2019-05-18T15:24:52.037Z,10.82
2019-05-18T15:27:20.929Z,8.00
2019-05-18T15:29:49.923Z,43.15
2019-05-18T15:32:18.916Z,34.05
2019-05-18T15:34:47.911Z,110.48
2019-05-18T15:37:17.004Z,107.83
2019-05-18T15:39:45.896Z,89.52
2019-05-18T15:42:14.887Z,69.90
2019-05-18T15:44:43.887Z,62.98
2019-05-18T15:47:12.875Z,46.40
2019-05-18T15:49:41.869Z,39.27
2019-05-18T15:52:11.988Z,45.55
2019-05-18T15:54:41.186Z,48.83
2019-05-18T15:57:10.075Z,68.80
2019-05-18T15:59:39.068Z,93.45
2019-05-18T16:02:08.064Z,96.47
2019-05-18T16:04:37.054Z,103.70
2019-05-18T16:07:06.051Z,104.90
2019-05-18T16:09:36.885Z,104.35
2019-05-18T16:12:05.878Z,101.78
2019-05-18T16:14:35.180Z,98.80
2019-05-18T16:17:06.018Z,96.25
2019-05-18T16:19:35.009Z,92.25
2019-05-18T16:22:04.035Z,87.90
2019-05-18T16:24:33.304Z,86.82
2019-05-18T16:27:02.299Z,82.33
2019-05-18T16:29:31.605Z,78.27
2019-05-18T16:32:00.615Z,75.87
2019-05-18T16:34:29.588Z,69.65
2019-05-18T16:37:00.746Z,66.42
2019-05-18T16:39:29.104Z,63.90
2019-05-18T16:41:58.199Z,62.55
2019-05-18T16:44:27.192Z,57.73
2019-05-18T16:46:56.697Z,54.03
2019-05-18T16:49:26.004Z,50.20
2019-05-18T16:51:55.399Z,47.93
2019-05-18T16:54:24.598Z,47.53
2019-05-18T16:56:54.205Z,43.80
2019-05-18T16:59:23.201Z,39.90
2019-05-18T17:01:52.194Z,40.63
2019-05-18T17:04:21.191Z,38.60
2019-05-18T17:06:50.279Z,34.38
2019-05-18T17:09:19.272Z,31.15
2019-05-18T17:11:49.192Z,31.70
2019-05-18T17:14:18.084Z,28.90
2019-05-18T17:16:47.386Z,27.47
2019-05-18T17:19:16.372Z,26.45
2019-05-18T17:21:45.365Z,25.12
2019-05-18T17:24:14.357Z,22.87
2019-05-18T17:26:52.347Z,22.30
2019-05-18T17:29:13.981Z,22.95
2019-05-18T17:31:42.874Z,19.37
2019-05-18T17:34:11.866Z,18.50
2019-05-18T17:36:40.859Z,17.98
2019-05-18T17:39:09.857Z,16.27
2019-05-18T17:41:38.847Z,16.10
2019-05-18T17:44:07.844Z,14.53
2019-05-18T17:46:36.831Z,14.23
2019-05-18T17:49:05.723Z,12.95
2019-05-18T17:51:34.612Z,12.98
2019-05-18T17:54:03.503Z,12.33
2019-05-18T17:56:32.496Z,11.97
2019-05-18T17:59:01.492Z,10.88
2019-05-18T18:01:30.488Z,10.38
2019-05-18T18:03:59.477Z,9.95
2019-05-18T18:06:28.475Z,9.83
2019-05-18T18:08:57.464Z,8.77
2019-05-18T18:11:26.558Z,8.45
2019-05-18T18:13:55.860Z,8.53
2019-05-18T18:16:25.071Z,8.10
2019-05-18T18:18:54.365Z,7.67
2019-05-18T18:21:23.433Z,7.05
2019-05-18T18:23:55.217Z,7.08
2019-05-18T18:26:24.715Z,6.87
2019-05-18T18:28:54.019Z,6.60
2019-05-18T18:31:22.978Z,5.85
2019-05-18T18:33:52.005Z,5.62
2019-05-18T18:36:21.409Z,6.08
2019-05-18T18:38:50.610Z,6.03
2019-05-18T18:41:20.524Z,5.37
2019-05-18T18:43:50.239Z,4.70
2019-05-18T18:46:19.117Z,4.75
2019-05-18T18:48:48.111Z,4.30
2019-05-18T18:51:17.137Z,3.40
2019-05-18T18:53:46.097Z,3.90
2019-05-18T18:56:14.987Z,3.15
2019-05-18T18:58:43.878Z,3.30
2019-05-18T19:01:12.769Z,3.15
2019-05-18T19:03:41.763Z,2.70
2019-05-18T19:06:10.756Z,2.62
2019-05-18T19:08:39.748Z,2.17
2019-05-18T19:11:08.750Z,2.17
2019-05-18T19:13:37.947Z,2.10
2019-05-18T19:16:06.830Z,1.80
2019-05-18T19:18:37.878Z,1.60
2019-05-18T19:21:06.885Z,1.67
2019-05-18T19:23:36.473Z,1.62
2019-05-18T19:26:06.081Z,1.82
2019-05-18T19:28:35.073Z,1.60
2019-05-18T19:31:04.071Z,1.70
2019-05-18T19:33:33.059Z,1.50
2019-05-18T19:36:02.075Z,1.42
2019-05-18T19:38:31.969Z,1.32
2019-05-18T19:41:00.759Z,1.67
2019-05-18T19:43:29.647Z,1.15
2019-05-18T19:45:58.639Z,1.10
2019-05-18T19:48:27.632Z,1.20
2019-05-18T19:50:56.727Z,1.25
2019-05-18T19:53:25.927Z,1.32
2019-05-18T19:55:55.227Z,1.20
2019-05-18T19:58:24.843Z,1.30
2019-05-18T20:00:54.237Z,1.10
2019-05-18T20:03:23.094Z,1.30
2019-05-18T20:05:52.122Z,1.37
2019-05-18T20:08:21.011Z,1.20
2019-05-18T20:10:49.798Z,1.20
2019-05-18T20:13:19.202Z,1.12
2019-05-18T20:15:48.092Z,1.30
2019-05-18T20:18:17.089Z,1.27
2019-05-18T20:20:46.079Z,1.10
2019-05-18T20:23:15.380Z,1.10
2019-05-18T20:25:44.376Z,1.20
2019-05-18T20:28:23.387Z,1.20
2019-05-18T20:30:43.691Z,1.30
2019-05-18T20:33:12.581Z,1.32
2019-05-18T20:35:42.806Z,1.30
2019-05-18T20:38:11.797Z,1.30
2019-05-18T20:40:40.794Z,1.15
2019-05-18T20:43:09.885Z,1.15
2019-05-18T20:45:38.778Z,1.10
2019-05-18T20:48:07.774Z,1.40
2019-05-18T20:50:36.767Z,1.20
2019-05-18T20:53:05.761Z,1.20
2019-05-18T20:55:34.758Z,1.30
2019-05-18T20:58:03.853Z,1.20
2019-05-18T21:00:32.836Z,1.10
2019-05-18T21:03:01.729Z,1.40
2019-05-18T21:05:30.719Z,1.22
2019-05-18T21:07:59.716Z,1.32
2019-05-18T21:10:28.706Z,1.40
2019-05-18T21:12:57.703Z,1.50
2019-05-18T21:15:26.694Z,1.30
2019-05-18T21:17:56.299Z,1.27
2019-05-18T21:20:25.601Z,1.47
2019-05-18T21:22:54.597Z,1.12
2019-05-18T21:25:23.676Z,1.20
2019-05-18T21:27:52.880Z,1.30
2019-05-18T21:30:22.189Z,1.67
2019-05-18T21:32:51.184Z,1.22
2019-05-18T21:35:20.174Z,1.50
2019-05-18T21:37:49.166Z,1.40
2019-05-18T21:40:18.161Z,1.50
2019-05-18T21:42:47.158Z,1.72
2019-05-18T21:45:16.148Z,1.62
2019-05-18T21:47:46.059Z,1.80
2019-05-18T21:50:15.059Z,1.55
2019-05-18T21:52:44.048Z,1.47
2019-05-18T21:55:13.042Z,1.37
2019-05-18T21:57:42.138Z,1.45
2019-05-18T22:00:11.025Z,1.57
2019-05-18T22:02:40.125Z,1.80
2019-05-18T22:05:10.241Z,1.90
2019-05-18T22:07:40.160Z,1.30
2019-05-18T22:10:24.518Z,1.35
2019-05-18T22:12:40.906Z,1.50
2019-05-18T22:15:09.800Z,1.47
2019-05-18T22:17:57.941Z,1.55
2019-05-18T22:20:26.935Z,1.45
2019-05-18T22:22:56.234Z,1.55
2019-05-18T22:25:25.635Z,1.70
2019-05-18T22:27:54.639Z,1.80
2019-05-18T22:30:23.826Z,1.70
2019-05-18T22:32:53.092Z,2.27
2019-05-18T22:35:22.229Z,1.77
2019-05-18T22:37:51.112Z,2.30
2019-05-18T22:40:20.106Z,1.70
2019-05-18T22:42:49.113Z,1.85
2019-05-18T22:45:18.399Z,1.93
2019-05-18T22:47:47.498Z,2.07
2019-05-18T22:50:16.852Z,2.13
2019-05-18T22:52:45.797Z,2.00
2019-05-18T22:55:14.682Z,1.87
2019-05-18T22:57:43.679Z,2.37
2019-05-18T23:00:12.675Z,1.98
2019-05-18T23:02:41.669Z,1.82
2019-05-18T23:05:10.659Z,2.27
2019-05-18T23:07:40.576Z,2.52
2019-05-18T23:10:09.560Z,1.98
2019-05-18T23:12:38.553Z,2.60
2019-05-18T23:15:07.546Z,2.27
2019-05-18T23:17:36.436Z,2.62
2019-05-18T23:20:06.248Z,2.00
2019-05-18T23:22:35.143Z,2.47
2019-05-18T23:25:06.594Z,2.30
2019-05-18T23:27:35.584Z,2.37
2019-05-18T23:30:06.726Z,2.58
2019-05-18T23:32:36.030Z,2.22
2019-05-18T23:35:05.942Z,2.60
2019-05-18T23:37:34.939Z,2.55
2019-05-18T23:40:04.746Z,3.15
2019-05-18T23:42:33.945Z,3.00
2019-05-18T23:45:02.837Z,3.22
2019-05-18T23:47:31.932Z,2.92
2019-05-18T23:50:00.822Z,3.15
2019-05-18T23:52:29.711Z,2.60
2019-05-18T23:54:58.909Z,3.45
2019-05-18T23:57:27.816Z,3.40
2019-05-18T23:59:56.693Z,3.35
